Time;durP1;ratioP1;P1;durP2;ratioP2;P2;SDS_P1;SDS_P2;PMS_P1;PMS_P2;Temp;Humidity;BMP_temperature;BMP_pressure;BME280_temperature;BME280_humidity;BME280_pressure;Samples;Min_cycle;Max_cycle;Signal;HPM_P1;HPM_P2
2021/04/29 06:43:10;;;;;;;501.08;294.60;;;;;;;;;;5025004;28;20080;-78
2021/04/29 06:45:40;;;;;;;498.92;304.88;;;;;;;;;;5008952;28;20060;-81
2021/04/29 06:48:13;;;;;;;504.35;304.08;;;;;;;;;;5014174;28;20025;-80
2021/04/29 06:50:39;;;;;;;504.20;310.60;;;;;;;;;;5013984;28;20091;-83
2021/04/29 06:53:06;;;;;;;505.55;308.02;;;;;;;;;;5030263;28;20018;-80
2021/04/29 06:55:32;;;;;;;505.00;301.40;;;;;;;;;;5034450;28;20033;-84
2021/04/29 06:57:58;;;;;;;503.98;306.92;;;;;;;;;;5033502;28;20028;-83
2021/04/29 07:00:25;;;;;;;497.75;305.40;;;;;;;;;;5034409;28;20026;-84
2021/04/29 07:02:51;;;;;;;499.52;307.13;;;;;;;;;;5034347;28;20067;-83
2021/04/29 07:05:17;;;;;;;503.33;313.52;;;;;;;;;;5034361;28;20040;-80
2021/04/29 07:07:43;;;;;;;499.48;305.25;;;;;;;;;;5020248;28;20207;-82
2021/04/29 07:10:10;;;;;;;502.85;308.27;;;;;;;;;;5022095;28;20124;-84
2021/04/29 07:12:36;;;;;;;508.50;318.27;;;;;;;;;;5049443;28;20171;-85
2021/04/29 07:15:02;;;;;;;508.52;312.90;;;;;;;;;;5053289;28;20017;-83
2021/04/29 07:17:27;;;;;;;502.00;301.63;;;;;;;;;;5032105;28;20024;-85
2021/04/29 07:19:53;;;;;;;499.00;302.13;;;;;;;;;;5032416;28;20469;-87
2021/04/29 07:22:57;;;;;;;503.98;311.67;;;;;;;;;;5032438;28;20025;-83
2021/04/29 07:28:27;;;;;;;506.40;308.90;;;;;;;;;;5049014;28;20028;-84
2021/04/29 07:30:53;;;;;;;502.73;318.35;;;;;;;;;;5042169;28;20025;-84
2021/04/29 07:33:19;;;;;;;505.73;320.92;;;;;;;;;;5041231;28;20545;-82
2021/04/29 07:35:45;;;;;;;505.70;311.45;;;;;;;;;;5033770;28;20036;-84
2021/04/29 07:38:12;;;;;;;500.60;309.23;;;;;;;;;;5033516;28;20021;-87
2021/04/29 07:40:38;;;;;;;504.70;312.70;;;;;;;;;;5052609;28;20082;-84
2021/04/29 07:43:04;;;;;;;513.97;320.95;;;;;;;;;;5035798;28;20128;-85
2021/04/29 07:45:31;;;;;;;507.58;312.88;;;;;;;;;;5030881;28;20032;-86
2021/04/29 07:47:57;;;;;;;514.80;318.05;;;;;;;;;;5030305;28;20047;-84
2021/04/29 07:50:24;;;;;;;511.48;319.40;;;;;;;;;;5029429;28;20052;-82
2021/04/29 07:52:50;;;;;;;506.45;313.98;;;;;;;;;;5045963;28;20027;-84
2021/04/29 07:55:17;;;;;;;506.58;312.73;;;;;;;;;;5055259;28;20075;-85
2021/04/29 07:57:44;;;;;;;508.65;305.95;;;;;;;;;;5071720;28;20048;-84
2021/04/29 08:00:12;;;;;;;508.83;311.25;;;;;;;;;;5038617;28;20434;-85
2021/04/29 08:02:38;;;;;;;505.08;307.98;;;;;;;;;;5039779;28;20056;-85
2021/04/29 08:05:05;;;;;;;511.33;316.92;;;;;;;;;;5038416;28;20357;-83
2021/04/29 08:07:31;;;;;;;509.77;313.80;;;;;;;;;;5043454;28;20082;-81
2021/04/29 08:09:57;;;;;;;510.75;317.60;;;;;;;;;;5035856;28;20029;-80
2021/04/29 08:12:23;;;;;;;514.80;320.08;;;;;;;;;;5036585;28;20580;-81
2021/04/29 08:14:52;;;;;;;506.08;312.80;;;;;;;;;;5047837;28;20067;-81
2021/04/29 08:17:18;;;;;;;510.43;312.60;;;;;;;;;;5033975;28;20075;-81
2021/04/29 08:19:45;;;;;;;511.02;314.80;;;;;;;;;;5037223;28;20259;-80
2021/04/29 08:22:11;;;;;;;504.02;316.20;;;;;;;;;;5034409;28;20037;-85
2021/04/29 08:24:37;;;;;;;508.48;311.88;;;;;;;;;;5038820;28;20029;-81
2021/04/29 08:27:03;;;;;;;510.38;314.38;;;;;;;;;;5036289;28;20125;-85
2021/04/29 08:29:29;;;;;;;508.85;312.08;;;;;;;;;;5037848;28;20021;-84
2021/04/29 08:31:55;;;;;;;509.98;312.48;;;;;;;;;;5054592;28;20043;-85
2021/04/29 08:34:22;;;;;;;508.35;315.10;;;;;;;;;;5046467;28;20082;-85
2021/04/29 08:36:48;;;;;;;511.80;310.63;;;;;;;;;;5055053;28;20024;-85
2021/04/29 08:39:14;;;;;;;506.77;310.90;;;;;;;;;;5039096;28;20112;-83
2021/04/29 08:41:40;;;;;;;511.38;318.27;;;;;;;;;;5034404;28;20727;-83
2021/04/29 08:44:06;;;;;;;511.83;318.67;;;;;;;;;;5016428;28;20077;-83
2021/04/29 08:46:32;;;;;;;510.83;315.75;;;;;;;;;;5012085;28;20389;-83
2021/04/29 08:48:59;;;;;;;514.80;312.17;;;;;;;;;;5005805;28;20124;-81
2021/04/29 08:51:26;;;;;;;514.13;320.23;;;;;;;;;;5013681;28;20068;-81
2021/04/29 08:53:53;;;;;;;512.53;317.20;;;;;;;;;;5015963;28;20079;-80
2021/04/29 08:56:22;;;;;;;509.80;315.50;;;;;;;;;;5017258;28;20021;-82
2021/04/29 08:58:48;;;;;;;508.60;316.58;;;;;;;;;;5017312;28;20021;-81
2021/04/29 09:01:14;;;;;;;510.25;312.92;;;;;;;;;;5016298;28;20508;-82
2021/04/29 09:03:40;;;;;;;510.98;317.40;;;;;;;;;;5015358;28;20029;-80
2021/04/29 09:06:07;;;;;;;516.55;323.48;;;;;;;;;;5016213;28;20164;-78
2021/04/29 09:08:34;;;;;;;506.90;315.15;;;;;;;;;;5017193;28;20075;-80
2021/04/29 09:11:07;;;;;;;510.15;315.17;;;;;;;;;;5017138;28;20021;-83
2021/04/29 09:13:33;;;;;;;508.40;316.08;;;;;;;;;;5017341;28;20040;-81
2021/04/29 09:16:07;;;;;;;510.95;314.90;;;;;;;;;;5017237;28;20035;-82
2021/04/29 09:18:33;;;;;;;516.15;325.23;;;;;;;;;;5032691;28;20021;-81
2021/04/29 09:21:05;;;;;;;507.95;316.92;;;;;;;;;;5003067;28;20116;-83
2021/04/29 09:23:32;;;;;;;513.20;318.10;;;;;;;;;;5027740;28;20532;-84
2021/04/29 09:26:08;;;;;;;510.10;318.52;;;;;;;;;;4997389;28;20049;-85
2021/04/29 09:28:45;;;;;;;510.45;320.30;;;;;;;;;;5001540;28;20022;-82
2021/04/29 09:31:15;;;;;;;512.13;317.42;;;;;;;;;;5035255;28;20025;-85
2021/04/29 09:33:41;;;;;;;;;;;;;;;;;;5005850;28;20017;-83
2021/04/29 09:36:08;;;;;;;505.45;307.17;;;;;;;;;;5034984;28;19916;-84
2021/04/29 09:38:39;;;;;;;506.92;310.33;;;;;;;;;;5032803;28;20116;-84
2021/04/29 09:41:08;;;;;;;501.52;306.48;;;;;;;;;;5017431;28;20032;-84
2021/04/29 09:43:35;;;;;;;515.45;310.77;;;;;;;;;;5017776;28;20053;-84
2021/04/29 09:46:02;;;;;;;504.02;310.00;;;;;;;;;;5014989;28;20510;-83
2021/04/29 09:48:35;;;;;;;504.50;309.55;;;;;;;;;;5016305;28;20026;-83
2021/04/29 09:51:01;;;;;;;510.23;314.63;;;;;;;;;;5016619;28;20437;-85
2021/04/29 09:53:37;;;;;;;506.17;316.00;;;;;;;;;;5032648;28;20065;-84
2021/04/29 09:56:08;;;;;;;503.85;310.73;;;;;;;;;;5016940;28;20128;-82
2021/04/29 09:58:34;;;;;;;507.50;316.30;;;;;;;;;;5016761;28;20063;-86
2021/04/29 10:01:00;;;;;;;511.13;316.48;;;;;;;;;;5017444;28;20400;-82
2021/04/29 10:03:26;;;;;;;508.15;317.95;;;;;;;;;;5021450;28;20492;-85
2021/04/29 10:05:54;;;;;;;505.02;310.08;;;;;;;;;;5015692;28;20025;-84
2021/04/29 10:08:26;;;;;;;509.15;318.30;;;;;;;;;;5006358;28;20041;-82
2021/04/29 10:10:54;;;;;;;505.30;310.00;;;;;;;;;;5006205;28;20080;-85
2021/04/29 10:13:20;;;;;;;504.00;311.58;;;;;;;;;;5011561;28;20033;-85
2021/04/29 10:15:47;;;;;;;510.52;318.52;;;;;;;;;;5012120;28;20049;-85
2021/04/29 10:18:14;;;;;;;503.52;308.67;;;;;;;;;;5039802;28;20101;-84
2021/04/29 10:20:41;;;;;;;507.77;309.60;;;;;;;;;;5025768;28;20376;-85
2021/04/29 10:23:10;;;;;;;510.73;314.70;;;;;;;;;;5006374;28;20551;-84
2021/04/29 10:25:36;;;;;;;508.25;314.63;;;;;;;;;;5018824;28;20434;-85
2021/04/29 10:28:03;;;;;;;512.28;315.52;;;;;;;;;;5023696;28;20048;-82
2021/04/29 10:30:31;;;;;;;511.60;317.52;;;;;;;;;;5046210;28;20458;-85
2021/04/29 10:32:57;;;;;;;512.13;317.58;;;;;;;;;;5012466;28;20026;-85
2021/04/29 10:35:24;;;;;;;509.80;321.75;;;;;;;;;;5015249;28;20025;-84
2021/04/29 10:38:08;;;;;;;509.67;317.90;;;;;;;;;;5029665;28;20025;-86
2021/04/29 10:40:35;;;;;;;502.67;313.38;;;;;;;;;;5031217;28;20039;-85
2021/04/29 10:43:02;;;;;;;510.73;318.38;;;;;;;;;;5019670;28;20053;-84
2021/04/29 10:45:28;;;;;;;501.00;308.88;;;;;;;;;;5018383;28;20025;-84
2021/04/29 10:48:07;;;;;;;514.38;316.00;;;;;;;;;;5013968;28;20132;-84
2021/04/29 10:50:46;;;;;;;525.35;325.75;;;;;;;;;;5010492;28;20037;-81
2021/04/29 10:53:14;;;;;;;515.90;317.65;;;;;;;;;;5010370;28;20029;-84
2021/04/29 10:55:43;;;;;;;520.20;314.33;;;;;;;;;;5003470;28;20033;-85
2021/04/29 10:58:20;;;;;;;522.47;322.60;;;;;;;;;;4996298;28;20112;-85
2021/04/29 11:01:01;;;;;;;518.90;318.33;;;;;;;;;;4995790;28;20030;-85
2021/04/29 11:03:31;;;;;;;524.63;320.92;;;;;;;;;;4995516;28;20034;-82
2021/04/29 11:06:08;;;;;;;526.72;322.52;;;;;;;;;;5009373;28;20052;-83
2021/04/29 11:08:54;;;;;;;516.92;316.45;;;;;;;;;;5046995;28;20553;-85
2021/04/29 11:11:20;;;;;;;521.55;321.33;;;;;;;;;;5013724;28;20037;-84
2021/04/29 11:14:06;;;;;;;522.92;326.52;;;;;;;;;;5010836;28;20503;-85
2021/04/29 11:16:51;;;;;;;521.13;324.92;;;;;;;;;;4999888;28;20413;-84
2021/04/29 11:19:36;;;;;;;521.70;324.50;;;;;;;;;;5012088;28;20099;-80
2021/04/29 11:22:06;;;;;;;518.08;323.08;;;;;;;;;;5012085;28;20025;-83
2021/04/29 11:24:37;;;;;;;514.40;317.38;;;;;;;;;;5016796;28;20028;-80
2021/04/29 11:27:03;;;;;;;511.58;322.25;;;;;;;;;;4995341;28;20033;-79
2021/04/29 11:29:39;;;;;;;512.03;311.23;;;;;;;;;;5018294;28;20121;-83
2021/04/29 11:32:05;;;;;;;506.58;307.45;;;;;;;;;;5035403;28;20026;-85
2021/04/29 11:34:45;;;;;;;512.20;313.70;;;;;;;;;;5018965;28;20029;-85
2021/04/29 11:37:11;;;;;;;511.43;317.27;;;;;;;;;;5037244;28;20040;-82
2021/04/29 11:39:37;;;;;;;512.80;320.20;;;;;;;;;;5037987;28;20033;-82
2021/04/29 11:42:04;;;;;;;511.98;315.60;;;;;;;;;;5030277;28;20497;-80
2021/04/29 11:44:30;;;;;;;509.55;311.23;;;;;;;;;;5039508;28;20388;-83
2021/04/29 11:46:56;;;;;;;516.70;320.25;;;;;;;;;;5038610;28;20673;-83
2021/04/29 11:49:22;;;;;;;507.48;316.25;;;;;;;;;;5029563;28;20024;-83
2021/04/29 11:51:50;;;;;;;502.75;307.73;;;;;;;;;;5033091;28;20376;-81
2021/04/29 11:54:18;;;;;;;501.02;303.40;;;;;;;;;;5026645;28;20036;-84
2021/04/29 11:56:45;;;;;;;503.10;308.65;;;;;;;;;;5030756;28;20102;-83
2021/04/29 11:59:11;;;;;;;504.48;309.55;;;;;;;;;;5028953;28;20061;-86
2021/04/29 12:01:38;;;;;;;500.00;305.15;;;;;;;;;;5035779;28;20404;-84
2021/04/29 12:04:22;;;;;;;504.10;316.02;;;;;;;;;;5028090;28;20105;-86
2021/04/29 12:06:49;;;;;;;500.75;313.98;;;;;;;;;;5034945;28;20043;-82
2021/04/29 12:09:15;;;;;;;498.88;314.90;;;;;;;;;;5036392;28;20677;-85
2021/04/29 12:11:41;;;;;;;497.92;312.65;;;;;;;;;;5032398;28;20039;-79
2021/04/29 12:14:07;;;;;;;501.55;323.60;;;;;;;;;;5038412;28;20033;-82
2021/04/29 12:16:33;;;;;;;498.70;317.85;;;;;;;;;;5037772;28;20125;-80
2021/04/29 12:18:59;;;;;;;493.67;303.35;;;;;;;;;;5056079;28;20054;-83
2021/04/29 12:21:28;;;;;;;500.90;312.30;;;;;;;;;;5038110;28;20035;-81
2021/04/29 12:23:58;;;;;;;495.13;301.40;;;;;;;;;;5036070;28;20029;-84
2021/04/29 12:26:34;;;;;;;508.67;311.83;;;;;;;;;;5037184;28;20083;-81
2021/04/29 12:29:04;;;;;;;493.65;299.83;;;;;;;;;;5019477;28;20036;-81
2021/04/29 12:31:31;;;;;;;503.98;311.92;;;;;;;;;;5042127;28;20047;-81
2021/04/29 12:34:17;;;;;;;496.50;305.95;;;;;;;;;;5037804;28;20025;-80
2021/04/29 12:37:02;;;;;;;495.23;309.55;;;;;;;;;;5037774;28;20070;-83
2021/04/29 12:39:29;;;;;;;487.50;293.20;;;;;;;;;;5037204;28;20028;-81
2021/04/29 12:41:55;;;;;;;491.30;298.48;;;;;;;;;;5036515;28;20052;-83
2021/04/29 12:44:31;;;;;;;489.13;292.77;;;;;;;;;;5036969;28;20422;-78
2021/04/29 12:46:58;;;;;;;490.23;298.17;;;;;;;;;;5032899;28;20030;-79
2021/04/29 12:49:24;;;;;;;492.42;302.75;;;;;;;;;;5031804;28;20032;-79
2021/04/29 12:51:50;;;;;;;492.50;299.25;;;;;;;;;;5036503;28;20051;-81
2021/04/29 12:54:17;;;;;;;491.92;302.77;;;;;;;;;;5036190;28;20029;-80
2021/04/29 12:56:45;;;;;;;493.92;301.73;;;;;;;;;;5037054;28;20410;-83
2021/04/29 12:59:12;;;;;;;495.98;307.92;;;;;;;;;;5033396;28;20029;-81
2021/04/29 13:01:40;;;;;;;490.52;290.10;;;;;;;;;;5033575;28;20477;-79
2021/04/29 13:04:17;;;;;;;488.25;289.42;;;;;;;;;;5036806;28;20388;-79
2021/04/29 13:06:43;;;;;;;485.33;286.05;;;;;;;;;;5033436;28;20040;-80
2021/04/29 13:09:09;;;;;;;487.25;288.70;;;;;;;;;;5044937;28;20061;-80
2021/04/29 13:11:43;;;;;;;482.13;284.02;;;;;;;;;;5026634;28;20091;-81
2021/04/29 13:14:13;;;;;;;478.73;277.83;;;;;;;;;;5054553;28;20079;-80
2021/04/29 13:16:41;;;;;;;477.08;280.15;;;;;;;;;;5047625;28;20092;-80
2021/04/29 13:19:08;;;;;;;482.85;285.98;;;;;;;;;;5033713;28;20027;-81
2021/04/29 13:21:35;;;;;;;481.63;291.80;;;;;;;;;;5036373;28;20051;-79
2021/04/29 13:24:01;;;;;;;487.15;292.67;;;;;;;;;;5035157;28;20071;-79
2021/04/29 13:26:28;;;;;;;484.55;286.88;;;;;;;;;;5035953;28;20029;-80
2021/04/29 13:28:54;;;;;;;483.15;283.40;;;;;;;;;;5032733;28;20112;-83
2021/04/29 13:31:20;;;;;;;482.52;278.08;;;;;;;;;;5023865;28;20033;-78
2021/04/29 13:33:47;;;;;;;484.48;286.55;;;;;;;;;;5035986;28;20025;-80
2021/04/29 13:36:14;;;;;;;483.50;287.00;;;;;;;;;;5035891;28;20017;-81
2021/04/29 13:38:40;;;;;;;485.35;284.65;;;;;;;;;;5034630;28;20563;-80
2021/04/29 13:41:06;;;;;;;490.38;288.27;;;;;;;;;;5033640;28;20052;-80
2021/04/29 13:43:33;;;;;;;488.13;284.58;;;;;;;;;;5023796;28;20053;-79
2021/04/29 13:46:01;;;;;;;486.20;278.83;;;;;;;;;;5032742;28;20021;-82
2021/04/29 13:48:27;;;;;;;487.65;286.50;;;;;;;;;;5034091;28;20029;-82
2021/04/29 13:50:53;;;;;;;492.40;286.42;;;;;;;;;;5016974;28;20029;-81
2021/04/29 13:53:19;;;;;;;488.40;283.80;;;;;;;;;;5033482;28;20051;-81
2021/04/29 13:55:45;;;;;;;493.08;288.63;;;;;;;;;;5034107;28;20029;-81
2021/04/29 13:58:11;;;;;;;488.20;281.20;;;;;;;;;;5034314;28;20162;-80
2021/04/29 14:00:38;;;;;;;491.27;283.73;;;;;;;;;;5034360;28;20033;-83
2021/04/29 14:03:05;;;;;;;499.40;297.00;;;;;;;;;;5033603;28;20032;-80
2021/04/29 14:05:32;;;;;;;490.40;287.13;;;;;;;;;;5034738;28;20460;-82
2021/04/29 14:07:58;;;;;;;491.90;286.45;;;;;;;;;;5033480;28;20557;-84
2021/04/29 14:10:24;;;;;;;495.98;287.83;;;;;;;;;;5033656;28;20028;-81
2021/04/29 14:12:50;;;;;;;497.63;295.45;;;;;;;;;;5032849;28;20021;-81
2021/04/29 14:15:16;;;;;;;498.95;294.45;;;;;;;;;;5032184;28;20036;-81
2021/04/29 14:17:45;;;;;;;501.33;297.30;;;;;;;;;;5028119;28;20076;-82
2021/04/29 14:20:11;;;;;;;496.17;291.75;;;;;;;;;;5023379;28;20643;-83
2021/04/29 14:22:37;;;;;;;503.40;297.10;;;;;;;;;;5029916;28;20116;-83
2021/04/29 14:25:05;;;;;;;503.45;300.27;;;;;;;;;;5027368;28;20044;-82
2021/04/29 14:27:31;;;;;;;499.33;300.27;;;;;;;;;;5023610;28;20128;-82
2021/04/29 14:30:03;;;;;;;499.30;295.27;;;;;;;;;;5031205;28;20029;-83
2021/04/29 14:32:29;;;;;;;500.83;298.77;;;;;;;;;;5024074;28;20167;-82
2021/04/29 14:34:55;;;;;;;498.13;294.05;;;;;;;;;;5033021;28;20036;-89
2021/04/29 14:37:21;;;;;;;500.88;297.00;;;;;;;;;;5022958;28;20029;-83
2021/04/29 14:39:47;;;;;;;500.60;291.00;;;;;;;;;;5015723;28;20037;-80
2021/04/29 14:42:13;;;;;;;500.27;295.50;;;;;;;;;;5049938;28;20043;-86
2021/04/29 14:44:39;;;;;;;499.50;292.38;;;;;;;;;;5051410;28;20433;-80
2021/04/29 14:47:07;;;;;;;506.38;300.58;;;;;;;;;;5036778;28;20024;-78
2021/04/29 14:49:34;;;;;;;500.45;289.17;;;;;;;;;;5044420;28;20025;-81
2021/04/29 14:52:00;;;;;;;503.50;290.65;;;;;;;;;;5033750;28;20021;-83
2021/04/29 14:54:26;;;;;;;502.83;288.33;;;;;;;;;;5034011;28;20032;-81
2021/04/29 14:56:52;;;;;;;504.27;294.50;;;;;;;;;;5030703;28;20112;-81
2021/04/29 14:59:18;;;;;;;505.58;294.95;;;;;;;;;;5031703;28;20028;-82
2021/04/29 15:01:44;;;;;;;502.20;286.45;;;;;;;;;;5028994;28;20040;-85
2021/04/29 15:04:10;;;;;;;504.35;291.10;;;;;;;;;;5032904;28;20496;-82
2021/04/29 15:06:36;;;;;;;509.83;295.38;;;;;;;;;;5032780;28;20121;-84
2021/04/29 15:09:02;;;;;;;506.45;293.30;;;;;;;;;;5052004;28;20448;-84
2021/04/29 15:11:28;;;;;;;506.45;301.63;;;;;;;;;;5034073;28;20025;-84
2021/04/29 15:13:54;;;;;;;504.30;290.58;;;;;;;;;;5034913;28;20380;-78
2021/04/29 15:16:20;;;;;;;505.02;292.20;;;;;;;;;;5052214;28;20075;-79
2021/04/29 15:18:46;;;;;;;506.00;289.58;;;;;;;;;;5035229;28;20032;-81
2021/04/29 15:21:12;;;;;;;498.13;287.27;;;;;;;;;;5052557;28;20029;-84
2021/04/29 15:23:38;;;;;;;500.27;292.83;;;;;;;;;;5031413;28;20442;-85
2021/04/29 15:26:05;;;;;;;504.77;291.45;;;;;;;;;;5033566;28;20108;-86
2021/04/29 15:28:31;;;;;;;502.85;288.70;;;;;;;;;;5034351;28;20017;-83
2021/04/29 15:30:57;;;;;;;504.17;291.13;;;;;;;;;;5052165;28;20025;-82
2021/04/29 15:33:23;;;;;;;511.55;293.77;;;;;;;;;;5034615;28;20707;-79
2021/04/29 15:35:49;;;;;;;506.77;292.38;;;;;;;;;;5034178;28;20053;-84
2021/04/29 15:38:15;;;;;;;505.85;288.27;;;;;;;;;;5047971;28;20047;-86
2021/04/29 15:40:41;;;;;;;507.42;282.70;;;;;;;;;;5015319;28;20029;-80
2021/04/29 15:43:07;;;;;;;507.63;296.45;;;;;;;;;;5023244;28;20069;-82
2021/04/29 15:45:33;;;;;;;501.23;285.15;;;;;;;;;;5028210;28;20582;-81
2021/04/29 15:47:59;;;;;;;504.98;287.67;;;;;;;;;;5030638;28;20045;-86
2021/04/29 15:50:25;;;;;;;508.67;285.05;;;;;;;;;;5031212;28;20214;-91
2021/04/29 15:52:53;;;;;;;507.92;284.55;;;;;;;;;;5033024;28;20071;-83
2021/04/29 15:55:19;;;;;;;508.95;283.60;;;;;;;;;;5033283;28;20021;-79
2021/04/29 15:57:45;;;;;;;498.35;283.23;;;;;;;;;;5034105;28;20025;-86
2021/04/29 16:00:12;;;;;;;508.52;292.27;;;;;;;;;;5051695;28;20025;-85
2021/04/29 16:02:38;;;;;;;505.00;288.52;;;;;;;;;;5051956;28;20492;-83
2021/04/29 16:05:05;;;;;;;503.35;291.40;;;;;;;;;;5034386;28;20037;-83
2021/04/29 16:07:32;;;;;;;504.25;283.58;;;;;;;;;;5025557;28;20029;-83
2021/04/29 16:09:58;;;;;;;504.48;281.85;;;;;;;;;;5034505;28;20124;-82
2021/04/29 16:12:24;;;;;;;504.55;285.50;;;;;;;;;;5031879;28;20022;-80
2021/04/29 16:14:50;;;;;;;503.13;284.92;;;;;;;;;;5035614;28;20032;-87
2021/04/29 16:17:16;;;;;;;505.40;282.17;;;;;;;;;;5036476;28;20504;-83
2021/04/29 16:19:45;;;;;;;494.90;275.98;;;;;;;;;;5032371;28;20121;-83
2021/04/29 16:22:11;;;;;;;507.20;281.88;;;;;;;;;;5052370;28;20100;-80
2021/04/29 16:24:38;;;;;;;504.17;289.08;;;;;;;;;;5036321;28;20028;-87
2021/04/29 16:27:04;;;;;;;504.73;283.17;;;;;;;;;;5024280;28;20025;-86
2021/04/29 16:29:55;;;;;;;507.15;293.15;;;;;;;;;;5033792;28;20113;-86
2021/04/29 16:32:22;;;;;;;504.30;286.98;;;;;;;;;;5017000;28;20021;-80
2021/04/29 16:34:49;;;;;;;500.10;280.35;;;;;;;;;;5043958;28;20036;-85
2021/04/29 16:37:15;;;;;;;509.15;294.48;;;;;;;;;;5031257;28;20021;-84
2021/04/29 16:39:42;;;;;;;508.50;289.35;;;;;;;;;;5027722;28;20026;-80
2021/04/29 16:42:08;;;;;;;517.92;297.60;;;;;;;;;;5025768;28;20590;-81
2021/04/29 16:44:34;;;;;;;510.65;290.70;;;;;;;;;;5033399;28;20083;-85
2021/04/29 16:47:00;;;;;;;508.60;289.55;;;;;;;;;;5029572;28;20036;-81
2021/04/29 16:49:26;;;;;;;513.17;297.60;;;;;;;;;;5029573;28;20021;-84
2021/04/29 16:51:52;;;;;;;505.20;285.70;;;;;;;;;;5025891;28;20021;-81
2021/04/29 16:54:18;;;;;;;505.48;290.58;;;;;;;;;;5019145;28;20053;-84
2021/04/29 16:56:44;;;;;;;508.88;290.33;;;;;;;;;;5014329;28;20087;-87
2021/04/29 16:59:10;;;;;;;507.80;286.27;;;;;;;;;;5036429;28;20100;-86
2021/04/29 17:01:36;;;;;;;504.67;293.17;;;;;;;;;;5040137;28;20036;-84
2021/04/29 17:04:02;;;;;;;501.95;290.73;;;;;;;;;;5035754;28;20075;-84
2021/04/29 17:06:28;;;;;;;494.30;288.27;;;;;;;;;;5017779;28;20546;-85
2021/04/29 17:08:54;;;;;;;494.13;288.52;;;;;;;;;;5038477;28;20060;-87
2021/04/29 17:11:21;;;;;;;502.35;293.73;;;;;;;;;;5018742;28;20264;-81
2021/04/29 17:13:47;;;;;;;498.73;285.83;;;;;;;;;;5044018;28;20052;-86
2021/04/29 17:16:13;;;;;;;506.48;293.60;;;;;;;;;;5030042;28;20312;-82
2021/04/29 17:18:39;;;;;;;505.08;294.05;;;;;;;;;;5027980;28;20021;-82
2021/04/29 17:21:06;;;;;;;507.92;289.23;;;;;;;;;;5026170;28;20404;-88
2021/04/29 17:23:32;;;;;;;504.92;286.15;;;;;;;;;;5027410;28;20021;-81
2021/04/29 17:25:58;;;;;;;514.08;294.77;;;;;;;;;;5045322;28;20039;-88
2021/04/29 17:28:24;;;;;;;513.13;290.85;;;;;;;;;;5028961;28;20025;-88
2021/04/29 17:30:50;;;;;;;515.95;294.63;;;;;;;;;;5030456;28;20068;-83
2021/04/29 17:33:16;;;;;;;519.03;296.45;;;;;;;;;;5044645;28;20495;-87
2021/04/29 17:35:42;;;;;;;520.55;296.92;;;;;;;;;;5025608;28;20068;-83
2021/04/29 17:38:08;;;;;;;518.85;290.60;;;;;;;;;;5031682;28;20052;-81
2021/04/29 17:40:34;;;;;;;512.67;286.60;;;;;;;;;;5025579;28;20029;-79
2021/04/29 17:43:01;;;;;;;516.00;293.00;;;;;;;;;;5037493;28;20057;-84
2021/04/29 17:45:28;;;;;;;509.70;294.38;;;;;;;;;;5031918;28;20039;-82
2021/04/29 17:47:54;;;;;;;512.10;297.65;;;;;;;;;;5028191;28;20025;-80
2021/04/29 17:50:21;;;;;;;509.00;292.23;;;;;;;;;;5046845;28;20048;-85
2021/04/29 17:52:50;;;;;;;514.40;290.50;;;;;;;;;;5051056;28;20873;-83
2021/04/29 17:55:16;;;;;;;524.47;298.70;;;;;;;;;;5028307;28;20053;-80
2021/04/29 17:57:42;;;;;;;513.25;291.33;;;;;;;;;;5035844;28;20052;-84
2021/04/29 18:00:09;;;;;;;512.60;289.27;;;;;;;;;;5036440;28;20032;-90
2021/04/29 18:02:35;;;;;;;511.35;290.02;;;;;;;;;;5035856;28;20067;-80
2021/04/29 18:05:01;;;;;;;509.20;286.90;;;;;;;;;;5053149;28;20021;-85
2021/04/29 18:07:27;;;;;;;512.00;290.25;;;;;;;;;;5053245;28;20070;-81
2021/04/29 18:09:53;;;;;;;511.23;289.05;;;;;;;;;;5032883;28;20385;-89
2021/04/29 18:12:19;;;;;;;509.65;290.77;;;;;;;;;;5046651;28;20029;-83
2021/04/29 18:14:45;;;;;;;504.83;278.27;;;;;;;;;;5028497;28;20047;-87
2021/04/29 18:17:11;;;;;;;511.95;288.00;;;;;;;;;;5030035;28;20575;-81
2021/04/29 18:19:37;;;;;;;507.55;289.05;;;;;;;;;;5025375;28;20025;-82
2021/04/29 18:22:03;;;;;;;514.38;294.77;;;;;;;;;;5026894;28;20013;-80
2021/04/29 18:24:29;;;;;;;508.88;292.23;;;;;;;;;;5025786;28;20116;-84
2021/04/29 18:26:55;;;;;;;504.83;281.17;;;;;;;;;;5033331;28;20104;-90
2021/04/29 18:29:22;;;;;;;505.38;294.25;;;;;;;;;;5027379;28;20469;-84
2021/04/29 18:31:48;;;;;;;504.00;284.35;;;;;;;;;;5042062;28;20078;-83
2021/04/29 18:34:14;;;;;;;506.23;290.85;;;;;;;;;;5032497;28;20032;-86
2021/04/29 18:36:40;;;;;;;504.05;290.40;;;;;;;;;;5051316;28;20025;-86
2021/04/29 18:39:06;;;;;;;509.08;291.92;;;;;;;;;;5025823;28;20389;-86
2021/04/29 18:41:33;;;;;;;507.60;290.58;;;;;;;;;;5052223;28;20024;-84
2021/04/29 18:43:59;;;;;;;506.50;284.85;;;;;;;;;;5023287;28;20049;-87
2021/04/29 18:46:25;;;;;;;505.20;286.05;;;;;;;;;;5029138;28;20029;-81
2021/04/29 18:48:51;;;;;;;506.92;288.80;;;;;;;;;;5033847;28;20026;-82
2021/04/29 18:51:17;;;;;;;504.85;288.58;;;;;;;;;;5035343;28;20115;-84
2021/04/29 18:53:43;;;;;;;511.73;299.52;;;;;;;;;;5051209;28;20453;-83
2021/04/29 18:56:09;;;;;;;508.65;290.65;;;;;;;;;;5034732;28;20036;-86
2021/04/29 18:58:35;;;;;;;506.48;287.55;;;;;;;;;;5034648;28;20032;-85
2021/04/29 19:01:04;;;;;;;506.63;290.85;;;;;;;;;;5032603;28;20484;-87
2021/04/29 19:03:30;;;;;;;503.70;289.13;;;;;;;;;;5036945;28;20021;-86
2021/04/29 19:05:56;;;;;;;509.08;285.55;;;;;;;;;;5034032;28;20095;-81
2021/04/29 19:08:22;;;;;;;503.50;287.05;;;;;;;;;;5034194;28;20040;-85
2021/04/29 19:10:48;;;;;;;505.38;291.42;;;;;;;;;;5035027;28;20033;-84
2021/04/29 19:13:14;;;;;;;505.13;295.30;;;;;;;;;;5035021;28;20468;-81
2021/04/29 19:15:40;;;;;;;500.15;290.02;;;;;;;;;;5037597;28;20026;-87
2021/04/29 19:18:06;;;;;;;506.30;286.63;;;;;;;;;;5018854;28;20550;-86
2021/04/29 19:23:36;;;;;;;506.60;289.67;;;;;;;;;;5047179;28;20023;-90
2021/04/29 19:26:02;;;;;;;503.77;294.02;;;;;;;;;;5033992;28;20044;-80
2021/04/29 19:28:28;;;;;;;503.90;300.45;;;;;;;;;;5033825;28;20090;-88
2021/04/29 19:30:54;;;;;;;502.23;283.00;;;;;;;;;;5027951;28;20028;-86
2021/04/29 19:33:20;;;;;;;508.20;288.90;;;;;;;;;;5031082;28;20025;-88
2021/04/29 19:35:46;;;;;;;507.67;296.83;;;;;;;;;;5034795;28;20056;-83
2021/04/29 19:38:12;;;;;;;508.55;298.30;;;;;;;;;;5031706;28;20030;-84
2021/04/29 19:40:38;;;;;;;505.38;291.73;;;;;;;;;;5033849;28;20082;-85
2021/04/29 19:43:09;;;;;;;504.30;294.27;;;;;;;;;;5048337;28;20060;-88
2021/04/29 19:45:35;;;;;;;507.30;299.23;;;;;;;;;;5023628;28;20021;-86
2021/04/29 19:48:01;;;;;;;505.00;290.20;;;;;;;;;;5032474;28;20036;-84
2021/04/29 19:50:27;;;;;;;497.10;285.17;;;;;;;;;;5034323;28;20111;-86
2021/04/29 19:52:54;;;;;;;502.70;291.98;;;;;;;;;;5059301;28;20048;-81
2021/04/29 19:55:20;;;;;;;507.50;292.83;;;;;;;;;;5034302;28;20036;-87
2021/04/29 19:58:17;;;;;;;510.85;296.52;;;;;;;;;;5033579;28;20028;-88
2021/04/29 20:00:43;;;;;;;505.55;283.27;;;;;;;;;;5025368;28;20362;-87
2021/04/29 20:03:09;;;;;;;505.83;286.95;;;;;;;;;;5035769;28;21561;-87
2021/04/29 20:05:36;;;;;;;512.08;295.77;;;;;;;;;;5047486;28;20389;-82
2021/04/29 20:08:02;;;;;;;505.92;294.13;;;;;;;;;;5038111;28;20056;-82
2021/04/29 20:10:28;;;;;;;508.35;296.70;;;;;;;;;;5036657;28;20384;-86
2021/04/29 20:12:54;;;;;;;505.13;293.65;;;;;;;;;;5034515;28;20113;-89
2021/04/29 20:15:20;;;;;;;506.75;295.13;;;;;;;;;;5037922;28;20044;-93
2021/04/29 20:17:46;;;;;;;508.33;296.80;;;;;;;;;;5031622;28;20057;-88
2021/04/29 20:20:13;;;;;;;499.23;286.55;;;;;;;;;;5037830;28;20086;-87
2021/04/29 20:22:40;;;;;;;507.92;298.23;;;;;;;;;;5033552;28;20021;-86
2021/04/29 20:25:07;;;;;;;506.38;293.00;;;;;;;;;;5033061;28;20029;-86
2021/04/29 20:27:33;;;;;;;509.77;291.75;;;;;;;;;;5024379;28;20029;-92
2021/04/29 20:29:59;;;;;;;504.55;293.98;;;;;;;;;;5037422;28;20071;-83
2021/04/29 20:32:25;;;;;;;508.70;290.17;;;;;;;;;;5042498;28;20021;-85
2021/04/29 20:34:51;;;;;;;510.55;299.00;;;;;;;;;;5027571;28;20025;-81
2021/04/29 20:37:17;;;;;;;509.25;292.40;;;;;;;;;;5037252;28;20033;-81
2021/04/29 20:39:43;;;;;;;503.85;294.00;;;;;;;;;;5037441;28;20032;-90
2021/04/29 20:42:09;;;;;;;512.85;295.77;;;;;;;;;;5036902;28;20104;-86
2021/04/29 20:44:37;;;;;;;508.08;291.92;;;;;;;;;;5036961;28;20037;-83